createdAt,value
2022-10-09T05:51:46.314Z,11.99
2022-10-09T05:58:46.285Z,11.43
2022-10-09T06:13:00.834Z,11.07
2022-10-09T06:19:53.818Z,11.06
2022-10-09T06:26:42.353Z,10.83
2022-10-09T06:33:26.157Z,10.76
2022-10-09T06:40:13.656Z,10.48
2022-10-09T07:04:58.634Z,10.83
2022-10-09T08:04:38.819Z,11.40
2022-10-09T08:11:03.014Z,11.41
2022-10-09T08:17:47.737Z,12.00
2022-10-09T08:24:34.214Z,12.26
2022-10-09T08:30:59.439Z,11.99
2022-10-09T09:38:29.341Z,12.41
2022-10-09T09:57:54.285Z,12.68
2022-10-09T10:04:55.957Z,12.65
2022-10-09T10:12:01.936Z,12.09
2022-10-09T10:19:02.589Z,11.80
2022-10-09T10:25:58.975Z,12.34
2022-10-09T10:33:08.267Z,12.40
2022-10-09T10:40:02.755Z,12.04
2022-10-09T10:47:05.814Z,12.30
2022-10-09T11:01:11.217Z,12.21
2022-10-09T11:08:14.936Z,12.11
2022-10-09T11:15:04.870Z,12.55
2022-10-09T11:29:07.527Z,12.94
2022-10-09T11:42:55.810Z,12.37
2022-10-09T11:57:24.055Z,12.72
2022-10-09T12:04:05.250Z,12.68
2022-10-09T12:11:23.847Z,13.06
2022-10-09T12:47:22.083Z,15.70
2022-10-09T12:54:08.921Z,15.94
2022-10-09T13:01:03.305Z,16.10
2022-10-09T13:15:03.239Z,17.08
2022-10-09T13:28:57.637Z,17.34
2022-10-09T13:35:54.145Z,17.33
2022-10-09T13:42:37.264Z,17.46
2022-10-09T13:49:24.384Z,17.81
2022-10-09T14:03:40.035Z,18.22
2022-10-09T14:10:24.003Z,18.50
2022-10-09T14:17:13.030Z,18.43
2022-10-09T14:23:59.135Z,18.01
2022-10-09T14:30:50.189Z,17.70
2022-10-09T14:37:41.673Z,17.34
2022-10-09T14:44:22.838Z,17.17
2022-10-09T14:51:11.530Z,17.38
2022-10-09T14:58:04.521Z,17.51
2022-10-09T15:04:49.921Z,17.34
2022-10-09T15:11:41.998Z,17.04
2022-10-09T15:18:23.728Z,16.74
2022-10-09T15:24:56.009Z,16.47
2022-10-09T15:31:41.938Z,15.90
2022-10-09T15:38:38.531Z,15.38
2022-10-09T15:45:28.817Z,15.19
2022-10-09T15:52:17.406Z,14.93
2022-10-09T16:06:27.961Z,14.08
2022-10-09T16:26:43.811Z,12.93
2022-10-09T16:33:36.529Z,12.33
2022-10-09T16:47:23.926Z,11.63
2022-10-09T16:54:38.794Z,11.44
2022-10-09T17:08:33.065Z,10.67
2022-10-09T17:15:14.646Z,10.15
2022-10-09T17:30:07.862Z,9.69
2022-10-09T17:52:29.667Z,9.14
2022-10-09T18:06:51.694Z,9.65
2022-10-09T18:19:58.123Z,10.39
2022-10-09T18:33:19.910Z,10.17
2022-10-09T18:40:04.638Z,9.54
2022-10-09T18:46:48.654Z,9.18
2022-10-09T18:53:31.037Z,8.77
2022-10-09T19:00:13.095Z,8.38
2022-10-09T19:06:55.046Z,8.12
2022-10-09T19:13:40.039Z,8.15
2022-10-09T19:20:22.204Z,8.17
2022-10-09T19:27:04.754Z,8.15
2022-10-09T19:33:48.144Z,7.98
2022-10-09T19:40:32.171Z,8.05
2022-10-09T19:47:17.719Z,8.18
2022-10-09T19:54:00.168Z,8.26
2022-10-09T20:00:18.749Z,8.27
2022-10-09T20:06:43.002Z,8.28
2022-10-09T20:13:26.666Z,8.33
2022-10-09T20:20:10.546Z,8.37
2022-10-09T20:27:02.208Z,8.45
2022-10-09T20:33:47.459Z,8.46
2022-10-09T20:40:33.973Z,8.42
2022-10-09T20:47:15.930Z,8.35
2022-10-09T20:53:57.900Z,8.34
2022-10-09T21:00:40.142Z,8.31
2022-10-09T21:07:21.899Z,8.13
2022-10-09T21:14:04.130Z,7.91
2022-10-09T21:20:50.052Z,7.76
2022-10-09T21:27:33.005Z,7.60
2022-10-09T21:34:15.991Z,7.47
2022-10-09T21:40:54.250Z,7.42
2022-10-09T21:47:15.730Z,7.33
2022-10-09T21:53:57.298Z,7.16
2022-10-09T22:00:40.586Z,7.07
2022-10-09T22:07:22.302Z,7.18
2022-10-09T22:14:03.634Z,7.10
2022-10-09T22:20:46.170Z,6.92
2022-10-09T22:27:27.593Z,6.81
2022-10-09T22:34:09.279Z,6.82
2022-10-09T22:40:50.426Z,6.87
2022-10-09T22:47:32.273Z,6.91
2022-10-09T22:54:14.005Z,6.92
2022-10-09T23:00:35.612Z,6.81
2022-10-09T23:07:17.361Z,6.71
2022-10-09T23:13:58.958Z,6.67
2022-10-09T23:20:41.651Z,6.58
2022-10-09T23:27:23.101Z,6.52
2022-10-09T23:34:04.729Z,6.57
2022-10-09T23:40:46.581Z,6.54
2022-10-09T23:47:28.401Z,6.49
2022-10-09T23:54:10.029Z,6.52
